createdAt,value
2018-12-25T00:00:17.155Z,5.55
2018-12-25T00:02:45.523Z,5.73
2018-12-25T00:05:14.023Z,6.97
2018-12-25T00:07:42.066Z,5.70
2018-12-25T00:10:10.158Z,7.50
2018-12-25T00:12:38.827Z,5.53
2018-12-25T00:15:07.307Z,5.93
2018-12-25T00:17:35.614Z,7.07
2018-12-25T00:20:03.777Z,9.07
2018-12-25T00:22:32.581Z,5.30
2018-12-25T00:25:00.615Z,4.10
2018-12-25T00:27:28.915Z,6.53
2018-12-25T00:29:57.667Z,5.23
2018-12-25T00:32:26.070Z,6.63
2018-12-25T00:34:54.046Z,6.37
2018-12-25T00:37:22.008Z,5.40
2018-12-25T00:39:49.975Z,6.00
2018-12-25T00:42:18.389Z,7.22
2018-12-25T00:44:46.461Z,4.80
2018-12-25T00:47:14.518Z,6.37
2018-12-25T00:49:42.676Z,5.43
2018-12-25T00:52:10.962Z,4.20
2018-12-25T00:54:38.964Z,7.08
2018-12-25T00:57:07.001Z,5.40
2018-12-25T00:59:34.695Z,5.10
2018-12-25T01:02:03.173Z,7.00
2018-12-25T01:04:31.174Z,5.97
2018-12-25T01:06:59.183Z,5.08
2018-12-25T01:09:27.460Z,5.57
2018-12-25T01:11:55.114Z,7.53
2018-12-25T01:14:23.103Z,7.40
2018-12-25T01:16:51.475Z,8.03
2018-12-25T01:19:23.427Z,5.65
2018-12-25T01:21:49.869Z,6.08
2018-12-25T01:24:18.157Z,6.75
2018-12-25T01:26:46.620Z,7.65
2018-12-25T01:29:14.599Z,7.33
2018-12-25T01:31:43.001Z,7.43
2018-12-25T01:34:11.247Z,5.27
2018-12-25T01:36:39.232Z,11.40
2018-12-25T01:39:06.954Z,6.33
2018-12-25T01:41:35.364Z,6.10
2018-12-25T01:44:03.466Z,7.28
2018-12-25T01:46:31.786Z,5.90
2018-12-25T01:48:59.819Z,6.33
2018-12-25T01:51:27.100Z,6.55
2018-12-25T01:53:55.830Z,4.30
2018-12-25T01:56:23.911Z,5.00
2018-12-25T01:58:51.888Z,8.47
2018-12-25T02:01:20.499Z,8.53
2018-12-25T02:03:48.547Z,8.33
2018-12-25T02:06:16.601Z,6.30
2018-12-25T02:08:44.583Z,6.58
2018-12-25T02:11:12.437Z,6.92
2018-12-25T02:13:40.919Z,5.78
2018-12-25T02:16:08.996Z,7.70
2018-12-25T02:18:37.124Z,6.65
2018-12-25T02:21:05.147Z,8.03
2018-12-25T02:23:33.123Z,7.72
2018-12-25T02:26:01.190Z,5.15
2018-12-25T02:28:29.894Z,10.38
2018-12-25T02:30:58.457Z,6.97
2018-12-25T02:33:26.010Z,8.23
2018-12-25T02:35:55.039Z,5.97
2018-12-25T02:38:23.006Z,6.60
2018-12-25T02:40:51.120Z,7.00
2018-12-25T02:43:19.034Z,5.67
2018-12-25T02:45:47.344Z,6.40
2018-12-25T02:48:16.094Z,6.25
2018-12-25T02:50:46.740Z,6.17
2018-12-25T02:53:14.803Z,7.25
2018-12-25T02:55:42.780Z,7.95
2018-12-25T02:58:10.806Z,4.90
2018-12-25T03:00:39.205Z,4.45
2018-12-25T03:03:07.597Z,4.67
2018-12-25T03:05:35.169Z,4.58
2018-12-25T03:08:03.544Z,9.48
2018-12-25T03:10:32.016Z,5.10
2018-12-25T03:12:59.685Z,5.00
2018-12-25T03:15:28.254Z,6.85
2018-12-25T03:17:56.462Z,7.67
2018-12-25T03:20:25.240Z,8.28
2018-12-25T03:22:52.867Z,10.58
2018-12-25T03:25:20.905Z,8.48
2018-12-25T03:27:48.935Z,11.45
2018-12-25T03:30:17.116Z,6.92
2018-12-25T03:32:45.098Z,9.68
2018-12-25T03:35:13.502Z,8.60
2018-12-25T03:37:41.533Z,8.75
2018-12-25T03:40:09.404Z,7.72
2018-12-25T03:42:37.531Z,9.30
2018-12-25T03:45:05.744Z,7.15
2018-12-25T03:47:33.743Z,12.63
2018-12-25T03:50:10.021Z,6.62
2018-12-25T03:52:30.984Z,8.50
2018-12-25T03:54:58.882Z,9.50
2018-12-25T03:57:26.928Z,7.37
2018-12-25T03:59:54.252Z,9.53
2018-12-25T04:02:22.496Z,8.88
2018-12-25T04:04:50.524Z,9.83
2018-12-25T04:07:18.407Z,7.78
2018-12-25T04:09:46.484Z,6.35
2018-12-25T04:12:14.843Z,6.30
2018-12-25T04:14:42.525Z,7.15
2018-12-25T04:17:10.987Z,7.47
2018-12-25T04:19:39.076Z,10.35
2018-12-25T04:22:07.362Z,6.83
2018-12-25T04:24:39.100Z,6.50
2018-12-25T04:27:06.989Z,8.90
2018-12-25T04:29:35.269Z,7.40
2018-12-25T04:32:03.435Z,7.62
2018-12-25T04:34:32.087Z,7.20
2018-12-25T04:37:00.513Z,6.67
2018-12-25T04:39:28.794Z,6.83
2018-12-25T04:41:57.662Z,6.53
2018-12-25T04:44:26.357Z,6.55
2018-12-25T04:46:54.667Z,7.83
2018-12-25T04:49:22.589Z,7.65
2018-12-25T04:51:50.737Z,7.03
2018-12-25T04:54:19.158Z,6.53
2018-12-25T04:56:47.525Z,5.20
2018-12-25T04:59:15.087Z,5.97
2018-12-25T05:01:42.650Z,7.03
2018-12-25T05:04:11.039Z,7.13
2018-12-25T05:06:39.737Z,8.75
2018-12-25T05:09:07.819Z,7.57
2018-12-25T05:11:36.387Z,7.67
2018-12-25T05:14:04.455Z,8.03
2018-12-25T05:16:32.546Z,7.90
2018-12-25T05:19:00.184Z,8.20
2018-12-25T05:21:28.159Z,13.60
2018-12-25T05:23:56.684Z,6.10
2018-12-25T05:26:24.756Z,7.20
2018-12-25T05:28:53.431Z,5.87
2018-12-25T05:31:21.089Z,8.68
2018-12-25T05:33:48.829Z,5.30
2018-12-25T05:36:17.569Z,9.60
2018-12-25T05:38:46.330Z,6.97
2018-12-25T05:41:14.389Z,5.33
2018-12-25T05:43:42.461Z,6.53
2018-12-25T05:46:10.419Z,7.15
2018-12-25T05:48:38.286Z,4.42
2018-12-25T05:51:06.024Z,6.00
2018-12-25T05:53:34.431Z,7.05
2018-12-25T05:56:02.688Z,6.55
2018-12-25T05:58:30.796Z,4.10
2018-12-25T06:00:59.307Z,5.22
2018-12-25T06:03:27.331Z,7.55
2018-12-25T06:05:55.355Z,8.73
2018-12-25T06:08:23.667Z,7.42
2018-12-25T06:10:51.693Z,7.45
2018-12-25T06:13:20.013Z,9.08
2018-12-25T06:15:48.714Z,13.05
2018-12-25T06:18:16.403Z,7.60
2018-12-25T06:20:44.042Z,6.45
2018-12-25T06:23:11.808Z,7.10
2018-12-25T06:25:39.466Z,5.28
2018-12-25T06:28:08.227Z,7.85
2018-12-25T06:30:36.634Z,9.90
2018-12-25T06:33:05.013Z,5.60
2018-12-25T06:35:32.643Z,6.60
2018-12-25T06:38:00.667Z,7.47
2018-12-25T06:40:28.955Z,10.30
2018-12-25T06:42:57.064Z,8.88
2018-12-25T06:45:25.891Z,7.97
2018-12-25T06:47:53.859Z,7.78
2018-12-25T06:50:21.817Z,7.17
2018-12-25T06:52:49.995Z,5.20
2018-12-25T06:55:17.610Z,8.00
2018-12-25T06:57:45.666Z,7.35
2018-12-25T07:00:13.816Z,9.10
2018-12-25T07:02:41.788Z,6.83
2018-12-25T07:05:09.074Z,7.33
2018-12-25T07:07:37.132Z,7.60
2018-12-25T07:10:05.168Z,15.08
2018-12-25T07:12:33.259Z,7.00
2018-12-25T07:15:02.160Z,6.70
2018-12-25T07:17:30.723Z,7.58
2018-12-25T07:19:59.453Z,6.33
2018-12-25T07:22:26.992Z,5.77
2018-12-25T07:24:54.749Z,6.53
2018-12-25T07:27:22.797Z,5.47
2018-12-25T07:29:51.617Z,6.33
2018-12-25T07:32:20.404Z,9.63
2018-12-25T07:34:48.156Z,5.90
2018-12-25T07:37:16.556Z,6.12
2018-12-25T07:39:44.604Z,10.65
2018-12-25T07:42:12.571Z,10.82
2018-12-25T07:44:40.973Z,8.38
2018-12-25T07:47:11.215Z,8.40
2018-12-25T07:49:38.783Z,6.03
2018-12-25T07:52:07.110Z,7.60
2018-12-25T07:54:35.347Z,7.62
2018-12-25T07:57:03.518Z,9.90
2018-12-25T07:59:31.405Z,10.32
2018-12-25T08:01:59.401Z,6.83
2018-12-25T08:04:27.482Z,7.62
2018-12-25T08:06:55.844Z,6.33
2018-12-25T08:09:23.930Z,8.68
2018-12-25T08:11:52.421Z,7.83
2018-12-25T08:14:20.761Z,7.90
2018-12-25T08:16:48.466Z,14.25
2018-12-25T08:19:17.140Z,8.25
2018-12-25T08:21:45.334Z,8.15
2018-12-25T08:24:13.413Z,7.97
2018-12-25T08:26:41.455Z,6.05
2018-12-25T08:29:09.529Z,9.18
2018-12-25T08:31:37.903Z,6.47
2018-12-25T08:34:05.920Z,7.83
2018-12-25T08:36:33.674Z,7.57
2018-12-25T08:39:01.906Z,6.75
2018-12-25T08:41:29.780Z,8.65
2018-12-25T08:43:58.065Z,8.80
2018-12-25T08:46:26.648Z,10.98
2018-12-25T08:48:55.046Z,8.45
2018-12-25T08:51:23.027Z,8.60
2018-12-25T08:53:51.690Z,8.90
2018-12-25T08:56:20.428Z,14.05
2018-12-25T08:58:48.764Z,9.10
2018-12-25T09:01:17.150Z,8.50
2018-12-25T09:03:45.313Z,8.90
2018-12-25T09:06:13.795Z,12.77
2018-12-25T09:08:41.782Z,8.63
2018-12-25T09:11:10.247Z,7.30
2018-12-25T09:13:38.455Z,8.15
2018-12-25T09:16:06.592Z,13.17
2018-12-25T09:18:35.403Z,9.50
2018-12-25T09:21:05.446Z,10.80
2018-12-25T09:23:35.538Z,8.58
2018-12-25T09:26:04.372Z,16.53
2018-12-25T09:28:32.915Z,7.07
2018-12-25T09:31:00.200Z,9.80
2018-12-25T09:33:27.803Z,8.45
2018-12-25T09:35:56.648Z,9.43
2018-12-25T09:38:25.000Z,7.20
2018-12-25T09:40:53.456Z,10.40
2018-12-25T09:43:21.488Z,12.03
2018-12-25T09:45:50.018Z,15.40
2018-12-25T09:48:18.106Z,12.73
2018-12-25T09:50:46.284Z,9.53
2018-12-25T09:53:14.966Z,11.07
2018-12-25T09:55:42.823Z,18.37
2018-12-25T09:58:11.008Z,15.07
2018-12-25T10:00:38.704Z,11.63
2018-12-25T10:03:06.886Z,16.23
2018-12-25T10:05:34.606Z,11.80
2018-12-25T10:08:02.804Z,11.63
2018-12-25T10:10:30.838Z,9.73
2018-12-25T10:12:58.907Z,10.33
2018-12-25T10:15:26.227Z,10.50
2018-12-25T10:17:54.748Z,10.97
2018-12-25T10:20:24.452Z,11.17
2018-12-25T10:22:52.440Z,11.37
2018-12-25T10:25:20.428Z,10.03
2018-12-25T10:27:48.994Z,10.07
2018-12-25T10:30:17.407Z,9.47
2018-12-25T10:32:46.064Z,8.60
2018-12-25T10:35:13.812Z,11.10
2018-12-25T10:37:41.903Z,10.57
2018-12-25T10:40:10.003Z,9.87
2018-12-25T10:42:38.637Z,11.47
2018-12-25T10:45:09.315Z,11.40
2018-12-25T10:47:37.852Z,11.23
2018-12-25T10:50:07.049Z,9.87
2018-12-25T10:52:35.760Z,8.83
2018-12-25T10:55:04.070Z,9.33
2018-12-25T10:57:32.145Z,12.63
2018-12-25T11:00:00.454Z,9.40
2018-12-25T11:02:28.959Z,58.43
2018-12-25T11:04:57.770Z,23.43
2018-12-25T11:07:25.734Z,23.67
2018-12-25T11:09:53.317Z,14.67
2018-12-25T11:12:21.492Z,11.57
2018-12-25T11:14:49.575Z,14.33
2018-12-25T11:17:17.211Z,13.50
2018-12-25T11:19:45.279Z,11.47
2018-12-25T11:22:19.800Z,15.87
2018-12-25T11:24:44.506Z,12.67
2018-12-25T11:27:12.869Z,9.13
2018-12-25T11:29:41.527Z,15.13
2018-12-25T11:32:10.088Z,27.10
2018-12-25T11:34:38.704Z,24.80
2018-12-25T11:37:07.076Z,39.43
2018-12-25T11:39:34.820Z,41.17
2018-12-25T11:42:02.437Z,30.10
2018-12-25T11:44:30.901Z,20.47
2018-12-25T11:46:58.690Z,25.40
2018-12-25T11:49:26.901Z,15.90
2018-12-25T11:51:54.186Z,15.00
2018-12-25T11:54:22.263Z,10.57
2018-12-25T11:56:50.257Z,7.87
2018-12-25T11:59:18.312Z,9.50
2018-12-25T12:01:46.419Z,9.80
2018-12-25T12:04:14.147Z,10.40
2018-12-25T12:06:42.296Z,12.07
2018-12-25T12:09:10.587Z,10.30
2018-12-25T12:11:38.262Z,10.43
2018-12-25T12:14:06.947Z,10.03
2018-12-25T12:16:34.914Z,10.93
2018-12-25T12:19:03.031Z,10.17
2018-12-25T12:21:31.866Z,9.07
2018-12-25T12:23:59.566Z,10.13
2018-12-25T12:26:27.103Z,7.97
2018-12-25T12:28:55.092Z,10.93
2018-12-25T12:31:23.547Z,10.30
2018-12-25T12:33:51.140Z,10.73
2018-12-25T12:36:19.645Z,11.63
2018-12-25T12:38:50.859Z,14.53
2018-12-25T12:41:19.365Z,10.80
2018-12-25T12:43:48.036Z,10.63
2018-12-25T12:46:16.780Z,14.20
2018-12-25T12:48:44.990Z,11.83
2018-12-25T12:51:13.293Z,11.10
2018-12-25T12:53:41.349Z,11.67
2018-12-25T12:56:10.488Z,17.10
2018-12-25T12:58:38.449Z,14.00
2018-12-25T13:01:06.936Z,12.10
2018-12-25T13:03:35.451Z,13.17
2018-12-25T13:06:03.594Z,14.87
2018-12-25T13:08:31.875Z,11.13
2018-12-25T13:11:00.388Z,11.90
2018-12-25T13:13:28.572Z,14.40
2018-12-25T13:15:56.973Z,14.80
2018-12-25T13:18:25.514Z,12.20
2018-12-25T13:20:54.180Z,13.10
2018-12-25T13:23:21.908Z,13.63
2018-12-25T13:25:50.743Z,14.53
2018-12-25T13:28:19.582Z,17.43
2018-12-25T13:30:48.331Z,10.30
2018-12-25T13:33:17.048Z,13.10
2018-12-25T13:35:45.523Z,13.03
2018-12-25T13:38:13.903Z,12.60
2018-12-25T13:40:42.225Z,19.97
2018-12-25T13:43:10.421Z,13.87
2018-12-25T13:45:39.857Z,15.50
2018-12-25T13:48:08.763Z,14.13
2018-12-25T13:50:37.216Z,18.23
2018-12-25T13:53:05.352Z,13.63
2018-12-25T13:55:33.536Z,13.93
2018-12-25T13:58:01.753Z,16.97
2018-12-25T14:00:29.677Z,21.00
2018-12-25T14:02:58.005Z,18.20
2018-12-25T14:05:25.896Z,16.33
2018-12-25T14:07:53.942Z,19.70
2018-12-25T14:10:22.465Z,14.07
2018-12-25T14:12:51.204Z,19.07
2018-12-25T14:15:19.896Z,15.73
2018-12-25T14:17:48.316Z,19.90
2018-12-25T14:20:16.347Z,17.37
2018-12-25T14:22:44.826Z,13.53
2018-12-25T14:25:13.024Z,18.20
2018-12-25T14:27:41.498Z,16.40
2018-12-25T14:30:09.735Z,15.23
2018-12-25T14:32:38.870Z,19.07
2018-12-25T14:35:07.050Z,13.20
2018-12-25T14:37:34.922Z,13.07
2018-12-25T14:40:03.232Z,15.27
2018-12-25T14:42:30.879Z,17.77
2018-12-25T14:44:59.395Z,15.30
2018-12-25T14:47:27.430Z,17.77
2018-12-25T14:49:56.413Z,16.20
2018-12-25T14:52:24.874Z,16.70
2018-12-25T14:54:53.807Z,16.00
2018-12-25T14:57:21.616Z,14.60
2018-12-25T14:59:49.711Z,13.47
2018-12-25T15:02:18.076Z,16.70
2018-12-25T15:04:45.742Z,20.30
2018-12-25T15:07:14.306Z,16.10
2018-12-25T15:09:43.477Z,15.90
2018-12-25T15:12:11.725Z,13.57
2018-12-25T15:14:39.930Z,16.60
2018-12-25T15:17:08.047Z,13.27
2018-12-25T15:19:36.473Z,14.33
2018-12-25T15:22:04.608Z,13.17
2018-12-25T15:24:31.904Z,17.90
2018-12-25T15:27:00.663Z,15.20
2018-12-25T15:29:28.875Z,13.77
2018-12-25T15:32:03.058Z,13.97
2018-12-25T15:34:33.248Z,16.80
2018-12-25T15:37:03.231Z,12.73
2018-12-25T15:39:31.628Z,13.17
2018-12-25T15:41:59.739Z,15.23
2018-12-25T15:44:28.335Z,13.37
2018-12-25T15:46:56.018Z,17.97
2018-12-25T15:49:24.494Z,13.80
2018-12-25T15:51:52.545Z,13.47
2018-12-25T15:54:20.997Z,11.87
2018-12-25T15:56:49.594Z,13.03
2018-12-25T15:59:17.565Z,16.57
2018-12-25T16:01:45.705Z,11.37
2018-12-25T16:04:13.533Z,19.50
2018-12-25T16:06:41.603Z,12.53
2018-12-25T16:09:08.984Z,11.00
2018-12-25T16:11:36.253Z,11.60
2018-12-25T16:14:04.813Z,14.83
2018-12-25T16:16:32.633Z,10.97
2018-12-25T16:19:00.713Z,13.23
2018-12-25T16:21:28.488Z,16.33
2018-12-25T16:23:57.285Z,14.00
2018-12-25T16:26:26.182Z,13.00
2018-12-25T16:28:54.874Z,14.80
2018-12-25T16:31:22.946Z,16.97
2018-12-25T16:33:51.305Z,19.77
2018-12-25T16:36:20.094Z,17.90
2018-12-25T16:38:48.787Z,14.60
2018-12-25T16:41:16.875Z,14.90
2018-12-25T16:43:45.757Z,13.53
2018-12-25T16:46:14.217Z,16.43
2018-12-25T16:48:42.201Z,14.33
2018-12-25T16:51:10.294Z,11.70
2018-12-25T16:53:38.866Z,14.57
2018-12-25T16:56:07.498Z,20.50
2018-12-25T16:58:35.445Z,19.50
2018-12-25T17:01:03.500Z,15.20
2018-12-25T17:03:31.871Z,16.63
2018-12-25T17:06:00.454Z,16.40
2018-12-25T17:08:28.403Z,14.23
2018-12-25T17:10:56.089Z,14.47
2018-12-25T17:13:24.227Z,17.80
2018-12-25T17:15:52.636Z,18.90
2018-12-25T17:18:20.621Z,17.17
2018-12-25T17:20:49.019Z,15.90
2018-12-25T17:23:17.040Z,13.03
2018-12-25T17:25:46.173Z,14.47
2018-12-25T17:28:13.931Z,13.50
2018-12-25T17:30:42.791Z,26.30
2018-12-25T17:33:11.314Z,28.77
2018-12-25T17:35:41.853Z,19.00
2018-12-25T17:38:11.883Z,17.10
2018-12-25T17:40:40.241Z,14.30
2018-12-25T17:43:09.118Z,16.53
2018-12-25T17:45:37.178Z,15.40
2018-12-25T17:48:05.200Z,14.37
2018-12-25T17:50:33.727Z,14.13
2018-12-25T17:53:01.007Z,10.40
2018-12-25T17:55:28.646Z,15.87
2018-12-25T17:57:56.795Z,29.23
2018-12-25T18:00:24.902Z,21.40
2018-12-25T18:02:53.060Z,19.50
2018-12-25T18:05:21.164Z,20.73
2018-12-25T18:07:49.140Z,18.93
2018-12-25T18:10:17.920Z,19.93
2018-12-25T18:12:46.391Z,18.33
2018-12-25T18:15:14.861Z,21.03
2018-12-25T18:17:42.823Z,21.83
2018-12-25T18:20:10.844Z,17.50
2018-12-25T18:22:39.302Z,18.00
2018-12-25T18:25:06.837Z,19.97
2018-12-25T18:27:34.822Z,18.40
2018-12-25T18:30:02.619Z,17.93
2018-12-25T18:32:30.452Z,20.33
2018-12-25T18:34:58.317Z,18.50
2018-12-25T18:37:26.303Z,19.27
2018-12-25T18:39:55.726Z,17.57
2018-12-25T18:42:24.296Z,23.17
2018-12-25T18:44:52.689Z,16.87
2018-12-25T18:47:21.134Z,17.37
2018-12-25T18:49:49.124Z,19.53
2018-12-25T18:52:17.619Z,16.03
2018-12-25T18:54:46.075Z,12.67
2018-12-25T18:57:14.146Z,19.83
2018-12-25T18:59:42.525Z,15.47
2018-12-25T19:02:10.531Z,19.57
2018-12-25T19:04:40.419Z,18.50
2018-12-25T19:07:11.742Z,13.70
2018-12-25T19:09:40.139Z,28.70
2018-12-25T19:12:07.938Z,29.00
2018-12-25T19:14:44.453Z,31.17
2018-12-25T19:17:12.134Z,30.57
2018-12-25T19:19:40.613Z,30.17
2018-12-25T19:22:08.217Z,23.50
2018-12-25T19:24:37.085Z,19.17
2018-12-25T19:27:05.535Z,13.50
2018-12-25T19:29:33.605Z,18.83
2018-12-25T19:32:02.018Z,11.13
2018-12-25T19:34:30.500Z,16.63
2018-12-25T19:36:58.988Z,10.70
2018-12-25T19:39:27.442Z,15.93
2018-12-25T19:41:55.563Z,10.60
2018-12-25T19:44:24.036Z,10.80
2018-12-25T19:46:52.487Z,13.43
2018-12-25T19:49:20.142Z,12.07
2018-12-25T19:51:48.137Z,11.53
2018-12-25T19:54:15.893Z,10.37
2018-12-25T19:56:44.378Z,10.83
2018-12-25T19:59:16.812Z,8.57
2018-12-25T20:01:44.672Z,13.40
2018-12-25T20:04:28.467Z,8.83
2018-12-25T20:07:30.220Z,10.83
2018-12-25T20:10:11.125Z,11.17
2018-12-25T20:13:18.326Z,10.23
2018-12-25T20:16:00.237Z,9.20
2018-12-25T20:18:38.994Z,14.68
2018-12-25T20:21:29.401Z,12.67
2018-12-25T20:24:52.561Z,13.87
2018-12-25T20:28:15.113Z,38.60
2018-12-25T20:30:50.195Z,36.80
2018-12-25T20:33:40.145Z,22.03
2018-12-25T20:37:03.687Z,17.90
2018-12-25T20:40:16.064Z,16.00
2018-12-25T20:43:01.518Z,12.53
2018-12-25T20:46:11.324Z,13.18
2018-12-25T20:49:10.912Z,17.33
2018-12-25T20:52:14.064Z,11.20
2018-12-25T20:55:19.637Z,9.40
2018-12-25T20:58:40.814Z,9.03
2018-12-25T21:02:14.824Z,14.35
2018-12-25T21:05:13.508Z,13.40
2018-12-25T21:08:24.630Z,9.58
2018-12-25T21:11:10.741Z,10.88
2018-12-25T21:14:10.579Z,11.10
2018-12-25T21:17:01.206Z,10.75
2018-12-25T21:20:13.842Z,10.63
2018-12-25T21:23:38.128Z,10.85
2018-12-25T21:26:42.454Z,12.13
2018-12-25T21:29:10.535Z,9.10
2018-12-25T21:31:38.812Z,10.63
2018-12-25T21:34:07.199Z,7.92
2018-12-25T21:36:34.513Z,9.87
2018-12-25T21:39:02.605Z,8.18
2018-12-25T21:41:30.908Z,7.90
2018-12-25T21:43:59.264Z,11.85
2018-12-25T21:46:28.189Z,11.40
2018-12-25T21:48:56.756Z,33.10
2018-12-25T21:51:25.114Z,19.32
2018-12-25T21:53:53.530Z,10.58
2018-12-25T21:56:21.993Z,12.98
2018-12-25T21:58:50.852Z,10.18
2018-12-25T22:01:19.457Z,11.18
2018-12-25T22:03:47.656Z,9.65
2018-12-25T22:06:15.341Z,15.53
2018-12-25T22:08:43.845Z,9.10
2018-12-25T22:11:12.073Z,7.80
2018-12-25T22:13:39.830Z,16.73
2018-12-25T22:16:07.422Z,15.68
2018-12-25T22:18:36.048Z,8.10
2018-12-25T22:21:03.748Z,8.85
2018-12-25T22:23:31.095Z,10.15
2018-12-25T22:25:59.937Z,12.82
2018-12-25T22:28:27.699Z,12.63
2018-12-25T22:30:56.598Z,15.25
2018-12-25T22:33:24.689Z,14.60
2018-12-25T22:35:53.066Z,8.40
2018-12-25T22:38:21.458Z,9.98
2018-12-25T22:40:50.076Z,13.03
2018-12-25T22:43:21.238Z,12.85
2018-12-25T22:45:48.904Z,10.85
2018-12-25T22:48:17.347Z,9.75
2018-12-25T22:50:46.081Z,11.48
2018-12-25T22:53:14.308Z,11.97
2018-12-25T22:55:43.115Z,11.68
2018-12-25T22:58:11.578Z,13.53
2018-12-25T23:00:39.260Z,13.35
2018-12-25T23:03:08.080Z,18.57
2018-12-25T23:05:36.487Z,16.25
2018-12-25T23:08:04.464Z,16.48
2018-12-25T23:10:32.523Z,11.28
2018-12-25T23:13:00.620Z,11.80
2018-12-25T23:15:29.030Z,10.50
2018-12-25T23:17:57.579Z,15.58
2018-12-25T23:20:28.789Z,11.08
2018-12-25T23:22:54.833Z,14.47
2018-12-25T23:25:23.476Z,7.50
2018-12-25T23:27:51.912Z,12.82
2018-12-25T23:30:19.913Z,11.25
2018-12-25T23:32:48.114Z,14.28
2018-12-25T23:35:19.105Z,13.18
2018-12-25T23:37:47.167Z,13.28
2018-12-25T23:40:15.134Z,10.25
2018-12-25T23:42:43.149Z,12.30
2018-12-25T23:45:11.596Z,8.68
2018-12-25T23:47:39.977Z,12.47
2018-12-25T23:50:07.974Z,10.55
2018-12-25T23:52:35.838Z,9.63
2018-12-25T23:55:03.470Z,8.25
2018-12-25T23:57:31.663Z,11.12
